Time;durP1;ratioP1;P1;durP2;ratioP2;P2;SDS_P1;SDS_P2;PMS_P1;PMS_P2;Temp;Humidity;BMP_temperature;BMP_pressure;BME280_temperature;BME280_humidity;BME280_pressure;Samples;Min_cycle;Max_cycle;Signal;HPM_P1;HPM_P2
2022/09/08 00:00:39;;;;;;;5.87;4.10;;;;;;;18.18;60.30;97466.66;4912670;29;20633;-74
2022/09/08 00:03:11;;;;;;;5.57;4.27;;;;;;;18.20;60.59;97464.78;4912077;29;20208;-74
2022/09/08 00:05:50;;;;;;;5.80;4.43;;;;;;;18.10;60.26;97471.59;4912667;29;20247;-75
2022/09/08 00:08:20;;;;;;;5.87;4.23;;;;;;;17.87;60.69;97466.16;4911969;29;20219;-75
2022/09/08 00:10:51;;;;;;;7.87;4.87;;;;;;;17.79;60.78;97457.97;4912276;29;20205;-75
2022/09/08 00:13:18;;;;;;;4.77;4.07;;;;;;;17.81;60.84;97456.09;4911116;29;20607;-75
2022/09/08 00:15:46;;;;;;;4.43;3.97;;;;;;;17.79;60.93;97451.88;4895322;29;21296;-76
2022/09/08 00:18:13;;;;;;;5.83;4.20;;;;;;;17.72;60.89;97456.69;4912774;29;20199;-76
2022/09/08 00:20:40;;;;;;;5.30;4.40;;;;;;;17.75;60.33;97451.28;4912185;29;20204;-75
2022/09/08 00:23:08;;;;;;;5.47;4.17;;;;;;;17.68;61.27;97460.47;4912682;29;20229;-75
2022/09/08 00:25:35;;;;;;;5.50;4.40;;;;;;;17.66;60.70;97445.81;4912270;29;20186;-76
2022/09/08 00:28:02;;;;;;;5.63;4.50;;;;;;;17.69;61.00;97467.41;4912554;29;20655;-75
2022/09/08 00:30:31;;;;;;;5.57;4.87;;;;;;;17.71;61.17;97469.91;4910762;29;20234;-75
2022/09/08 00:32:58;;;;;;;6.53;4.67;;;;;;;17.50;62.07;97472.19;4911256;29;20188;-75
2022/09/08 00:35:26;;;;;;;5.43;4.40;;;;;;;17.57;62.32;97454.28;4910570;29;20196;-74
2022/09/08 00:37:53;;;;;;;7.20;4.60;;;;;;;17.55;62.76;97467.50;4909614;29;20238;-75
2022/09/08 00:40:23;;;;;;;6.03;4.93;;;;;;;17.39;62.65;97474.66;4910159;29;20201;-75
2022/09/08 00:43:04;;;;;;;6.40;4.40;;;;;;;17.22;63.38;97468.84;4910615;29;20223;-76
2022/09/08 00:45:46;;;;;;;5.57;4.60;;;;;;;17.06;64.27;97474.25;4910901;29;20294;-74
2022/09/08 00:48:17;;;;;;;6.03;5.10;;;;;;;16.96;64.54;97471.34;4909889;29;20253;-74
2022/09/08 00:50:45;;;;;;;7.00;5.50;;;;;;;16.64;65.36;97469.13;4909410;29;20836;-74
2022/09/08 00:53:16;;;;;;;6.20;5.13;;;;;;;16.19;66.69;97457.94;4910040;29;20278;-75
2022/09/08 00:55:43;;;;;;;7.53;5.47;;;;;;;16.06;67.97;97467.47;4909233;29;20207;-74
2022/09/08 00:58:12;;;;;;;5.80;5.23;;;;;;;15.96;67.92;97468.94;4910655;29;20256;-73
2022/09/08 01:00:41;;;;;;;6.47;4.93;;;;;;;16.07;67.64;97466.50;4909458;29;20191;-74
2022/09/08 01:03:12;;;;;;;5.30;4.50;;;;;;;16.20;66.88;97466.59;4910563;29;20212;-75
2022/09/08 01:05:51;;;;;;;5.80;4.83;;;;;;;16.01;67.25;97459.03;4910999;29;20193;-74
2022/09/08 01:14:51;;;;;;;6.20;5.30;;;;;;;15.49;69.18;97465.72;4910984;29;20205;-74
2022/09/08 01:17:21;;;;;;;7.33;5.57;;;;;;;15.30;69.91;97465.06;4910505;29;20201;-74
2022/09/08 01:19:49;;;;;;;5.60;5.10;;;;;;;15.12;70.93;97450.47;4909297;29;20239;-74
2022/09/08 01:22:40;;;;;;;7.33;5.13;;;;;;;15.04;71.58;97457.88;4910512;29;20206;-74
2022/09/08 01:25:14;;;;;;;8.37;5.70;;;;;;;14.97;71.41;97461.75;4910252;29;20232;-74
2022/09/08 01:27:47;;;;;;;6.10;5.47;;;;;;;15.02;71.62;97459.75;4909178;29;20679;-74
2022/09/08 01:30:14;;;;;;;7.27;5.53;;;;;;;15.10;71.30;97467.97;4909051;29;20226;-75
2022/09/08 01:32:43;;;;;;;6.43;5.50;;;;;;;15.21;70.90;97465.56;4910486;29;20202;-74
2022/09/08 01:35:27;;;;;;;7.00;5.53;;;;;;;15.19;71.05;97454.38;4910393;29;20794;-74
2022/09/08 01:37:54;;;;;;;7.03;6.27;;;;;;;15.13;70.76;97452.97;4908780;29;20670;-74
2022/09/08 01:40:22;;;;;;;7.13;5.90;;;;;;;15.04;71.18;97473.53;4909159;29;20206;-74
2022/09/08 01:42:50;;;;;;;7.73;5.70;;;;;;;15.07;70.98;97462.91;4910007;29;20213;-74
2022/09/08 01:45:18;;;;;;;7.60;6.27;;;;;;;14.98;71.19;97469.47;4908961;29;20646;-74
2022/09/08 01:47:45;;;;;;;6.73;6.03;;;;;;;15.05;70.92;97464.78;4909885;29;20241;-74
2022/09/08 01:50:12;;;;;;;7.23;6.53;;;;;;;15.04;71.15;97455.28;4910615;29;20853;-75
2022/09/08 01:52:39;;;;;;;6.97;6.10;;;;;;;15.04;71.03;97458.75;4911199;29;20616;-75
2022/09/08 01:55:06;;;;;;;7.60;6.63;;;;;;;15.05;70.88;97456.94;4913868;29;20190;-74
2022/09/08 01:57:33;;;;;;;7.03;6.33;;;;;;;14.95;71.52;97450.56;4914789;29;20677;-76
2022/09/08 02:00:01;;;;;;;8.47;6.47;;;;;;;14.88;71.64;97437.03;4912510;29;20198;-75
2022/09/08 02:02:30;;;;;;;10.80;7.60;;;;;;;14.77;72.54;97454.22;4914320;29;20191;-76
2022/09/08 02:04:57;;;;;;;8.00;6.57;;;;;;;14.78;72.27;97448.06;4914171;29;20196;-74
2022/09/08 02:07:25;;;;;;;8.73;6.70;;;;;;;14.67;72.62;97439.06;4914074;29;20234;-74
2022/09/08 02:09:53;;;;;;;8.93;6.27;;;;;;;14.64;73.37;97436.66;4914455;29;20809;-74
2022/09/08 02:12:20;;;;;;;8.10;6.73;;;;;;;14.54;73.83;97438.09;4914254;29;20194;-74
2022/09/08 02:14:47;;;;;;;8.50;7.17;;;;;;;14.42;73.91;97424.88;4914741;29;20191;-75
2022/09/08 02:17:14;;;;;;;9.70;7.87;;;;;;;14.29;74.45;97424.72;4914017;29;20277;-75
2022/09/08 02:19:42;;;;;;;9.27;7.87;;;;;;;14.33;74.18;97421.00;4914453;29;20583;-74
2022/09/08 02:22:09;;;;;;;11.27;7.73;;;;;;;14.52;73.58;97424.31;4914268;29;20650;-76
2022/09/08 02:24:37;;;;;;;8.10;7.03;;;;;;;14.74;73.15;97416.13;4912953;29;20201;-77
2022/09/08 02:27:04;;;;;;;8.23;7.20;;;;;;;15.06;72.02;97416.91;4914480;29;20226;-74
2022/09/08 02:29:32;;;;;;;8.80;7.20;;;;;;;15.00;71.07;97410.25;4913719;29;20281;-75
2022/09/08 02:32:02;;;;;;;8.57;7.20;;;;;;;14.85;72.23;97424.19;4914648;29;20727;-76
2022/09/08 02:34:29;;;;;;;11.20;6.60;;;;;;;14.83;72.30;97417.38;4914060;29;20587;-75
2022/09/08 02:36:56;;;;;;;9.60;6.77;;;;;;;14.82;71.89;97410.50;4914008;29;20249;-73
2022/09/08 02:39:24;;;;;;;10.27;6.80;;;;;;;14.43;73.47;97408.31;4913405;29;20200;-73
2022/09/08 02:41:51;;;;;;;9.40;7.50;;;;;;;14.38;73.63;97411.19;4911929;29;20216;-73
2022/09/08 02:44:18;;;;;;;7.47;6.77;;;;;;;14.41;73.14;97413.63;4913350;29;20289;-74
2022/09/08 02:46:45;;;;;;;9.27;6.90;;;;;;;14.74;72.84;97410.06;4912760;29;20220;-75
2022/09/08 02:49:13;;;;;;;7.10;6.37;;;;;;;14.82;71.97;97413.09;4912178;29;20671;-73
2022/09/08 02:51:40;;;;;;;9.63;6.50;;;;;;;14.62;72.43;97416.81;4911742;29;20733;-74
2022/09/08 02:54:08;;;;;;;7.93;6.70;;;;;;;14.48;72.90;97417.59;4911837;29;20230;-76
2022/09/08 02:56:35;;;;;;;7.63;6.73;;;;;;;14.41;73.15;97413.63;4912858;29;20670;-74
2022/09/08 02:59:02;;;;;;;7.50;6.70;;;;;;;14.39;73.64;97412.88;4912847;29;20200;-74
2022/09/08 03:01:29;;;;;;;8.00;6.53;;;;;;;14.33;73.83;97408.00;4913119;29;20202;-75
2022/09/08 03:03:57;;;;;;;7.43;6.43;;;;;;;14.41;73.51;97407.56;4912509;29;20191;-74
2022/09/08 03:06:24;;;;;;;7.53;6.60;;;;;;;14.33;73.39;97414.97;4912655;29;20228;-73
2022/09/08 03:08:51;;;;;;;7.63;6.93;;;;;;;14.16;73.87;97408.03;4912519;29;20701;-73
2022/09/08 03:11:18;;;;;;;7.83;6.60;;;;;;;13.88;74.32;97379.19;4913043;29;20194;-73
2022/09/08 03:13:45;;;;;;;9.20;7.23;;;;;;;13.98;74.67;97402.97;4912753;29;20224;-73
2022/09/08 03:16:12;;;;;;;8.00;6.60;;;;;;;13.94;75.31;97404.91;4912835;29;20750;-75
2022/09/08 03:18:39;;;;;;;8.87;6.97;;;;;;;13.96;75.86;97407.41;4912999;29;20314;-74
2022/09/08 03:21:10;;;;;;;12.63;7.10;;;;;;;13.97;75.60;97409.97;4912577;29;20198;-74
2022/09/08 03:23:38;;;;;;;8.23;7.20;;;;;;;13.90;75.56;97403.38;4912996;29;20729;-74
2022/09/08 03:26:10;;;;;;;8.43;6.93;;;;;;;13.71;76.07;97400.06;4910892;29;20258;-74
2022/09/08 03:28:38;;;;;;;8.63;7.17;;;;;;;13.61;76.39;97401.47;4912292;29;20329;-74
2022/09/08 03:31:10;;;;;;;9.13;7.17;;;;;;;13.69;76.21;97399.28;4912594;29;20293;-74
2022/09/08 03:33:37;;;;;;;9.27;7.27;;;;;;;13.60;77.07;97399.78;4912393;29;20197;-75
2022/09/08 03:36:07;;;;;;;8.00;7.13;;;;;;;13.68;76.12;97398.44;4911377;29;20230;-73
2022/09/08 03:38:35;;;;;;;8.20;7.27;;;;;;;13.76;76.40;97405.88;4911876;29;20201;-74
2022/09/08 03:41:10;;;;;;;8.97;7.10;;;;;;;13.75;76.32;97399.81;4912303;29;20788;-74
2022/09/08 03:43:41;;;;;;;7.17;6.47;;;;;;;13.97;75.28;97409.97;4909641;29;20209;-74
2022/09/08 03:46:08;;;;;;;8.60;6.87;;;;;;;14.04;74.93;97411.28;4912305;29;20292;-74
2022/09/08 03:48:36;;;;;;;8.37;6.43;;;;;;;13.94;75.12;97417.91;4904002;29;20254;-74
2022/09/08 03:51:25;;;;;;;8.83;6.90;;;;;;;13.67;76.28;97415.00;4893055;29;20191;-74
2022/09/08 03:54:46;;;;;;;9.73;7.00;;;;;;;13.66;76.43;97421.09;4893571;29;20189;-74
2022/09/08 03:56:42;;;;;;;8.90;6.80;;;;;;;13.80;75.72;97407.41;4904145;29;20199;-74
2022/09/08 03:59:09;;;;;;;8.47;6.63;;;;;;;13.91;76.01;97420.66;4911079;29;20277;-74
2022/09/08 04:01:38;;;;;;;8.43;7.43;;;;;;;13.95;75.27;97414.38;4912063;29;20622;-74
2022/09/08 04:04:05;;;;;;;10.90;7.37;;;;;;;14.00;75.69;97424.56;4911322;29;20193;-74
2022/09/08 04:06:32;;;;;;;7.77;6.67;;;;;;;14.13;74.75;97425.59;4910708;29;20199;-74
2022/09/08 04:09:00;;;;;;;7.37;6.23;;;;;;;14.33;75.04;97422.78;4911303;29;20255;-74
2022/09/08 04:11:27;;;;;;;8.60;7.00;;;;;;;14.22;73.87;97418.09;4911696;29;20197;-75
2022/09/08 04:13:54;;;;;;;9.07;7.10;;;;;;;14.34;73.45;97421.88;4911478;29;20288;-76
2022/09/08 04:16:21;;;;;;;8.60;6.70;;;;;;;14.29;73.46;97429.94;4909021;29;20289;-73
2022/09/08 04:18:48;;;;;;;9.40;7.50;;;;;;;14.17;73.95;97424.50;4910054;29;20195;-73
2022/09/08 04:21:15;;;;;;;8.63;7.40;;;;;;;13.94;74.72;97435.28;4909944;29;20194;-74
2022/09/08 04:23:42;;;;;;;7.57;6.63;;;;;;;13.88;74.18;97420.84;4912089;29;20194;-73
2022/09/08 04:26:13;;;;;;;12.87;7.70;;;;;;;13.74;75.37;97426.78;4911320;29;20210;-73
2022/09/08 04:28:41;;;;;;;8.57;6.70;;;;;;;13.67;75.70;97427.16;4911208;29;20233;-75
2022/09/08 04:31:12;;;;;;;10.30;6.80;;;;;;;13.91;74.72;97432.88;4909846;29;20213;-73
2022/09/08 04:33:40;;;;;;;9.47;6.70;;;;;;;13.99;74.41;97434.16;4911091;29;20190;-74
2022/09/08 04:36:19;;;;;;;8.40;6.50;;;;;;;14.03;74.70;97438.28;4911668;29;20206;-72
2022/09/08 04:38:54;;;;;;;8.30;6.43;;;;;;;14.14;74.21;97430.72;4910591;29;20189;-73
2022/09/08 04:41:21;;;;;;;7.00;6.27;;;;;;;14.43;73.20;97440.44;4911220;29;20675;-73
2022/09/08 04:43:48;;;;;;;6.80;6.10;;;;;;;14.66;72.11;97439.16;4910925;29;20228;-73
2022/09/08 04:46:17;;;;;;;9.73;6.23;;;;;;;14.61;71.56;97449.03;4909282;29;20292;-74
2022/09/08 04:48:45;;;;;;;7.90;6.50;;;;;;;14.68;71.51;97445.97;4909264;29;20211;-74
2022/09/08 04:51:15;;;;;;;9.87;6.63;;;;;;;15.09;71.01;97446.25;4910407;29;20683;-73
2022/09/08 04:53:44;;;;;;;5.93;5.27;;;;;;;15.29;69.70;97443.34;4909721;29;20221;-73
2022/09/08 04:56:12;;;;;;;6.73;5.87;;;;;;;15.55;69.25;97434.03;4908952;29;20198;-73
2022/09/08 04:58:41;;;;;;;9.50;6.70;;;;;;;15.64;68.59;97438.69;4910936;29;20198;-73
2022/09/08 05:01:12;;;;;;;9.17;6.13;;;;;;;15.60;68.66;97452.03;4911135;29;20194;-74
2022/09/08 05:03:40;;;;;;;6.93;6.00;;;;;;;15.67;68.42;97459.41;4910407;29;20199;-73
2022/09/08 05:06:12;;;;;;;7.23;5.63;;;;;;;15.54;69.04;97448.00;4910808;29;20194;-72
2022/09/08 05:08:42;;;;;;;7.13;5.90;;;;;;;15.52;69.07;97460.28;4910160;29;20233;-73
2022/09/08 05:11:10;;;;;;;9.40;6.70;;;;;;;15.63;69.04;97464.88;4910955;29;20283;-75
2022/09/08 05:13:37;;;;;;;7.27;5.70;;;;;;;15.77;68.69;97457.06;4910249;29;20765;-72
2022/09/08 05:16:09;;;;;;;13.23;6.83;;;;;;;16.00;68.21;97465.22;4910342;29;20242;-73
2022/09/08 05:18:36;;;;;;;7.87;5.57;;;;;;;16.00;68.06;97452.16;4908746;29;20233;-75
2022/09/08 05:21:04;;;;;;;6.03;5.40;;;;;;;16.19;68.00;97457.94;4910756;29;20191;-73
2022/09/08 05:23:32;;;;;;;7.37;6.30;;;;;;;16.44;66.64;97440.75;4910487;29;20631;-74
2022/09/08 05:26:02;;;;;;;7.07;6.00;;;;;;;16.97;66.05;97451.28;4909898;29;20689;-74
2022/09/08 05:28:31;;;;;;;11.60;6.60;;;;;;;17.36;64.57;97450.44;4910302;29;20735;-74
2022/09/08 05:30:59;;;;;;;8.53;5.77;;;;;;;17.24;64.72;97444.25;4909750;29;20680;-74
2022/09/08 05:33:26;;;;;;;8.07;5.70;;;;;;;17.42;64.15;97452.66;4910027;29;20694;-73
2022/09/08 05:35:54;;;;;;;7.90;5.57;;;;;;;17.53;63.86;97447.59;4909798;29;20196;-73
2022/09/08 05:38:21;;;;;;;8.10;5.80;;;;;;;17.60;64.02;97452.28;4909807;29;20628;-74
2022/09/08 05:40:48;;;;;;;7.63;6.10;;;;;;;17.57;63.65;97465.59;4908694;29;20201;-73
2022/09/08 05:43:17;;;;;;;14.83;6.07;;;;;;;17.72;63.52;97461.94;4908153;29;20189;-75
2022/09/08 05:45:49;;;;;;;7.90;5.70;;;;;;;18.13;62.46;97464.38;4910269;29;20197;-73
2022/09/08 05:48:16;;;;;;;9.73;5.93;;;;;;;18.32;61.78;97464.75;4909815;29;20223;-75
2022/09/08 05:50:44;;;;;;;8.70;5.40;;;;;;;18.55;60.75;97464.03;4909940;29;20260;-74
2022/09/08 05:53:13;;;;;;;10.60;6.03;;;;;;;18.63;60.48;97468.72;4910019;29;20201;-75
2022/09/08 05:56:04;;;;;;;7.63;5.27;;;;;;;18.66;60.30;97455.41;4908474;29;20721;-74
2022/09/08 05:58:31;;;;;;;8.03;5.63;;;;;;;18.89;59.92;97457.22;4909101;29;20710;-77
2022/09/08 06:01:09;;;;;;;6.37;5.20;;;;;;;19.02;59.25;97465.03;4909676;29;20196;-74
2022/09/08 06:03:37;;;;;;;10.93;5.10;;;;;;;19.14;58.44;97441.34;4908497;29;20198;-75
2022/09/08 06:06:07;;;;;;;10.70;5.00;;;;;;;19.28;58.89;97454.31;4909831;29;20205;-74
2022/09/08 06:08:37;;;;;;;6.90;5.10;;;;;;;19.32;58.28;97450.50;4908015;29;20658;-75
2022/09/08 06:11:04;;;;;;;6.50;4.60;;;;;;;19.23;57.86;97445.91;4908590;29;20607;-74
2022/09/08 06:13:32;;;;;;;10.77;6.87;;;;;;;19.11;58.66;97451.22;4909634;29;20193;-74
2022/09/08 06:16:13;;;;;;;10.57;5.73;;;;;;;19.10;58.29;97455.63;4910322;29;20225;-74
2022/09/08 06:18:43;;;;;;;7.20;4.70;;;;;;;19.32;58.19;97463.63;4909308;29;20729;-74
2022/09/08 06:21:12;;;;;;;7.87;5.73;;;;;;;19.61;57.36;97444.88;4909351;29;20281;-75
2022/09/08 06:23:40;;;;;;;8.90;4.47;;;;;;;19.97;56.51;97456.06;4909781;29;20250;-74
2022/09/08 06:26:15;;;;;;;7.50;4.53;;;;;;;19.93;56.22;97464.28;4909098;29;20574;-75
2022/09/08 06:28:55;;;;;;;8.10;4.47;;;;;;;19.86;56.63;97463.09;4909483;29;20241;-75
2022/09/08 06:31:29;;;;;;;8.83;5.30;;;;;;;20.08;56.30;97456.09;4908083;29;20277;-75
2022/09/08 06:34:02;;;;;;;12.37;5.00;;;;;;;20.24;55.30;97446.06;4908956;29;20190;-76
2022/09/08 06:36:51;;;;;;;6.23;4.60;;;;;;;20.14;55.12;97452.13;4909539;29;20285;-73
2022/09/08 06:39:32;;;;;;;9.57;5.13;;;;;;;20.18;55.65;97451.78;4908974;29;20313;-73
2022/09/08 06:42:29;;;;;;;8.87;5.30;;;;;;;20.09;55.67;97451.66;4913268;29;20662;-74
2022/09/08 06:44:59;;;;;;;9.93;5.37;;;;;;;20.12;55.82;97448.78;4913225;29;20658;-74
2022/09/08 06:47:34;;;;;;;8.63;5.10;;;;;;;20.29;55.28;97448.34;4912145;29;20229;-74
2022/09/08 06:50:00;;;;;;;7.50;5.17;;;;;;;20.62;54.76;97445.69;4911596;29;20276;-74
2022/09/08 06:52:44;;;;;;;9.97;6.37;;;;;;;20.75;54.56;97451.63;4912270;29;20277;-75
2022/09/08 06:55:38;;;;;;;7.10;4.60;;;;;;;21.18;53.54;97453.50;4912194;29;20827;-74
2022/09/08 06:58:22;;;;;;;22.33;15.07;;;;;;;21.29;54.46;97453.47;4895635;29;20202;-76
2022/09/08 07:01:22;;;;;;;16.03;7.67;;;;;;;21.58;53.47;97457.97;4912242;29;21003;-74
2022/09/08 07:04:20;;;;;;;10.17;7.03;;;;;;;21.74;52.54;97452.28;4909075;29;20221;-74
2022/09/08 07:07:34;;;;;;;11.90;5.00;;;;;;;22.08;51.68;97468.75;4912437;29;20885;-74
2022/09/08 07:10:27;;;;;;;6.20;4.97;;;;;;;22.34;51.13;97457.63;4910676;29;20271;-74
2022/09/08 07:13:04;;;;;;;7.40;4.67;;;;;;;22.42;50.15;97459.63;4912165;29;20694;-75
2022/09/08 07:15:53;;;;;;;14.60;10.53;;;;;;;22.52;49.56;97461.31;4912305;29;20193;-76
2022/09/08 07:18:32;;;;;;;7.57;4.90;;;;;;;22.47;49.80;97463.53;4910434;29;20203;-74
2022/09/08 07:21:27;;;;;;;11.20;6.73;;;;;;;22.13;50.60;97459.50;4911979;29;20634;-74
2022/09/08 07:23:57;;;;;;;8.13;5.17;;;;;;;22.55;49.36;97454.94;4912471;29;20224;-77
2022/09/08 07:26:32;;;;;;;6.27;3.90;;;;;;;22.80;48.53;97458.94;4911597;29;20203;-75
2022/09/08 07:29:08;;;;;;;6.00;3.80;;;;;;;22.55;47.41;97465.50;4910374;29;20252;-74
2022/09/08 07:31:44;;;;;;;13.40;4.13;;;;;;;22.59;47.90;97461.66;4911750;29;20189;-74
2022/09/08 07:34:21;;;;;;;9.27;4.13;;;;;;;22.72;47.08;97459.63;4911696;29;20197;-74
2022/09/08 07:37:00;;;;;;;6.17;3.90;;;;;;;22.83;45.92;97466.59;4911766;29;20193;-75
2022/09/08 07:40:00;;;;;;;9.33;4.43;;;;;;;22.49;45.08;97458.94;4911216;29;20219;-75
2022/09/08 07:42:28;;;;;;;6.90;3.60;;;;;;;21.97;45.68;97453.81;4911280;29;20198;-74
2022/09/08 07:45:01;;;;;;;4.80;3.17;;;;;;;22.12;46.06;97452.53;4911022;29;20224;-75
2022/09/08 07:47:44;;;;;;;8.87;3.90;;;;;;;22.34;46.30;97452.34;4911090;29;20225;-75
2022/09/08 07:50:22;;;;;;;6.13;3.10;;;;;;;21.97;45.22;97447.75;4911835;29;20292;-76
2022/09/08 07:52:49;;;;;;;3.67;3.03;;;;;;;21.96;45.40;97456.59;4911361;29;20284;-73
2022/09/08 07:55:39;;;;;;;4.90;3.80;;;;;;;22.13;44.51;97462.13;4911386;29;20591;-77
2022/09/08 07:58:18;;;;;;;6.07;3.37;;;;;;;22.16;45.23;97456.56;4911364;29;20277;-75
2022/09/08 08:01:11;;;;;;;4.67;3.00;;;;;;;21.97;43.90;97456.47;4910792;29;20288;-74
2022/09/08 08:04:05;;;;;;;7.23;3.53;;;;;;;22.08;44.99;97437.94;4911161;29;20204;-76
2022/09/08 08:06:45;;;;;;;5.57;4.27;;;;;;;22.20;45.09;97446.59;4909791;29;20198;-75
2022/09/08 08:09:31;;;;;;;10.67;8.60;;;;;;;22.40;44.25;97448.38;4910682;29;20260;-74
2022/09/08 08:12:16;;;;;;;11.27;4.53;;;;;;;22.57;44.23;97448.56;4911578;29;20208;-75
2022/09/08 08:14:47;;;;;;;7.50;4.00;;;;;;;22.58;44.62;97447.63;4909479;29;20755;-75
2022/09/08 08:17:20;;;;;;;7.50;4.20;;;;;;;22.58;44.73;97450.28;4909472;29;20197;-75
2022/09/08 08:20:06;;;;;;;5.70;3.97;;;;;;;22.70;45.36;97452.78;4911132;29;20224;-75
2022/09/08 08:23:05;;;;;;;6.03;3.70;;;;;;;22.60;44.91;97452.78;4910597;29;20200;-75
2022/09/08 08:25:52;;;;;;;6.93;3.80;;;;;;;22.65;44.60;97454.03;4894734;29;20276;-77
2022/09/08 08:28:20;;;;;;;6.67;4.20;;;;;;;22.62;44.17;97450.84;4910264;29;20231;-75
2022/09/08 08:31:09;;;;;;;7.93;3.40;;;;;;;23.04;44.79;97446.22;4909073;29;20198;-75
2022/09/08 08:33:43;;;;;;;4.10;3.70;;;;;;;23.51;43.96;97445.44;4910798;29;20233;-78
2022/09/08 08:36:15;;;;;;;7.23;3.63;;;;;;;23.72;44.10;97440.81;4910402;29;20312;-75
2022/09/08 08:38:47;;;;;;;10.93;6.80;;;;;;;23.88;44.46;97451.66;4910393;29;20201;-75
2022/09/08 08:41:33;;;;;;;5.70;3.80;;;;;;;23.30;45.12;97444.69;4908916;29;20221;-74
2022/09/08 08:44:28;;;;;;;6.17;4.20;;;;;;;23.47;45.32;97451.97;4909802;29;20242;-74
2022/09/08 08:47:37;;;;;;;6.07;4.10;;;;;;;23.63;45.33;97446.09;4909805;29;20868;-74
2022/09/08 08:50:22;;;;;;;7.90;4.67;;;;;;;23.88;44.75;97448.16;4909707;29;20287;-74
2022/09/08 08:53:08;;;;;;;5.00;4.40;;;;;;;23.34;46.10;97440.84;4909365;29;20282;-74
2022/09/08 08:55:58;;;;;;;5.27;3.83;;;;;;;23.51;45.63;97439.31;4908464;29;20215;-75
2022/09/08 08:58:34;;;;;;;5.50;3.60;;;;;;;23.26;45.53;97440.66;4908553;29;20373;-74
2022/09/08 09:01:15;;;;;;;4.37;3.40;;;;;;;23.14;45.68;97425.91;4909117;29;20681;-74
2022/09/08 09:04:03;;;;;;;6.87;4.33;;;;;;;23.01;45.99;97414.78;4892377;29;20209;-74
2022/09/08 09:07:11;;;;;;;10.23;3.83;;;;;;;23.40;46.16;97413.84;4909971;29;20191;-75
2022/09/08 09:10:20;;;;;;;8.40;4.70;;;;;;;23.85;45.26;97417.53;4906546;29;20231;-78
2022/09/08 09:13:10;;;;;;;7.70;4.23;;;;;;;24.15;43.89;97413.88;4910065;29;20205;-74
2022/09/08 09:15:55;;;;;;;4.97;4.27;;;;;;;23.74;44.76;97414.22;4910201;29;20200;-75
2022/09/08 09:18:44;;;;;;;4.67;3.50;;;;;;;23.77;44.84;97409.47;4909135;29;20206;-75
2022/09/08 09:21:36;;;;;;;6.60;3.97;;;;;;;23.67;45.17;97405.19;4909958;29;20284;-75
2022/09/08 09:24:12;;;;;;;4.70;3.60;;;;;;;23.84;45.15;97404.47;4909947;29;20211;-75
2022/09/08 09:26:47;;;;;;;4.83;3.70;;;;;;;23.92;44.99;97401.94;4907990;29;20254;-77
2022/09/08 09:29:20;;;;;;;8.03;4.57;;;;;;;24.29;44.46;97394.88;4909763;29;20233;-75
2022/09/08 09:31:58;;;;;;;6.43;4.27;;;;;;;24.50;44.30;97405.22;4909476;29;20290;-77
2022/09/08 09:34:50;;;;;;;4.90;3.53;;;;;;;24.23;45.99;97398.91;4907771;29;20204;-74
2022/09/08 09:37:30;;;;;;;8.77;4.10;;;;;;;24.16;46.70;97395.19;4908107;29;20199;-74
2022/09/08 09:40:25;;;;;;;6.60;4.17;;;;;;;23.75;47.23;97390.28;4909252;29;20205;-77
2022/09/08 09:43:29;;;;;;;7.10;4.07;;;;;;;24.20;45.88;97375.38;4908116;29;20232;-76
2022/09/08 09:46:24;;;;;;;5.17;4.10;;;;;;;24.27;46.50;97374.81;4909976;29;20196;-76
2022/09/08 09:49:29;;;;;;;5.63;3.60;;;;;;;24.33;45.88;97366.28;4908912;29;20223;-74
2022/09/08 09:52:02;;;;;;;5.40;4.37;;;;;;;24.54;46.19;97372.16;4889416;29;20233;-74
2022/09/08 09:54:45;;;;;;;5.63;4.20;;;;;;;24.88;44.69;97367.91;4893144;29;20217;-75
2022/09/08 09:57:55;;;;;;;5.73;4.07;;;;;;;25.20;44.21;97362.94;4909108;29;20683;-78
2022/09/08 10:00:25;;;;;;;5.63;3.93;;;;;;;25.03;45.42;97356.66;4909117;29;20227;-78
2022/09/08 10:03:40;;;;;;;6.80;3.77;;;;;;;24.97;45.34;97367.03;4907930;29;20185;-78
2022/09/08 10:06:24;;;;;;;5.77;4.00;;;;;;;25.11;44.98;97363.84;4858211;29;20220;-77
2022/09/08 10:09:22;;;;;;;4.03;3.53;;;;;;;25.30;44.54;97365.50;4908510;29;20228;-75
2022/09/08 10:12:29;;;;;;;5.93;4.07;;;;;;;25.19;45.09;97358.59;4909562;29;20190;-77
2022/09/08 10:15:19;;;;;;;8.40;7.13;;;;;;;25.29;44.57;97351.41;4910034;29;20201;-75
2022/09/08 10:18:05;;;;;;;5.70;3.60;;;;;;;25.32;44.80;97358.22;4910448;29;20269;-75
2022/09/08 10:20:44;;;;;;;7.23;3.97;;;;;;;24.91;46.17;97351.72;4913742;29;20249;-74
2022/09/08 10:23:48;;;;;;;6.43;4.23;;;;;;;24.89;45.85;97356.34;4910943;29;20257;-74
2022/09/08 10:26:18;;;;;;;6.33;4.50;;;;;;;24.90;45.69;97353.53;4912768;29;20668;-77
2022/09/08 10:29:08;;;;;;;6.60;4.93;;;;;;;25.20;45.45;97344.38;4912472;29;20230;-78
2022/09/08 10:31:52;;;;;;;5.40;4.27;;;;;;;25.14;45.48;97333.53;4912035;29;20196;-78
2022/09/08 10:34:19;;;;;;;12.37;5.70;;;;;;;25.27;46.13;97331.31;4912246;29;20666;-77
2022/09/08 10:37:03;;;;;;;13.73;5.80;;;;;;;25.58;44.94;97336.06;4910904;29;20831;-76
2022/09/08 10:39:41;;;;;;;8.13;5.03;;;;;;;25.72;44.16;97338.16;4912341;29;20194;-78
2022/09/08 10:42:30;;;;;;;7.97;4.73;;;;;;;25.92;43.87;97329.97;4911508;29;20218;-76
2022/09/08 10:45:12;;;;;;;5.13;4.37;;;;;;;25.73;44.44;97337.16;4912277;29;20258;-78
2022/09/08 10:47:48;;;;;;;28.30;15.00;;;;;;;25.44;44.47;97320.72;4912454;29;20288;-76
2022/09/08 10:50:23;;;;;;;8.73;5.33;;;;;;;25.29;44.92;97330.19;4895500;29;20293;-76
2022/09/08 10:52:58;;;;;;;8.27;5.03;;;;;;;25.32;44.38;97324.59;4911084;29;20605;-74
2022/09/08 10:55:27;;;;;;;6.03;4.50;;;;;;;25.14;44.89;97310.53;4911270;29;20192;-74
2022/09/08 10:58:19;;;;;;;11.07;7.27;;;;;;;25.38;44.48;97304.56;4912005;29;20288;-73
2022/09/08 11:01:18;;;;;;;8.73;5.60;;;;;;;25.38;43.90;97309.88;4910968;29;20273;-74
2022/09/08 11:04:08;;;;;;;7.40;5.00;;;;;;;25.53;44.02;97303.06;4887543;29;20211;-75
2022/09/08 11:06:35;;;;;;;6.03;4.70;;;;;;;25.75;43.01;97295.38;4911089;29;20200;-73
2022/09/08 11:09:11;;;;;;;8.07;4.53;;;;;;;26.01;42.19;97290.03;4911420;29;20251;-77
2022/09/08 11:12:22;;;;;;;5.33;3.90;;;;;;;26.10;42.01;97290.94;4910783;29;20197;-78
2022/09/08 11:15:22;;;;;;;4.83;4.20;;;;;;;25.90;42.50;97276.22;4910289;29;20206;-78
2022/09/08 11:17:51;;;;;;;6.97;4.23;;;;;;;26.09;41.88;97274.16;4910746;29;20191;-76
2022/09/08 11:20:39;;;;;;;4.70;4.20;;;;;;;26.26;41.69;97272.38;4910784;29;20274;-74
2022/09/08 11:23:23;;;;;;;6.73;4.33;;;;;;;26.21;41.88;97270.25;4911854;29;20183;-75
2022/09/08 11:26:32;;;;;;;6.83;4.30;;;;;;;26.46;41.35;97266.63;4911378;29;20198;-74
2022/09/08 11:29:09;;;;;;;6.00;3.93;;;;;;;26.71;40.38;97258.72;4871596;29;20242;-78
2022/09/08 11:32:02;;;;;;;7.37;4.67;;;;;;;26.81;40.19;97260.22;4911325;29;20194;-77
2022/09/08 11:34:36;;;;;;;6.07;4.20;;;;;;;26.41;40.96;97260.16;4910333;29;20268;-75
2022/09/08 11:37:06;;;;;;;6.90;4.50;;;;;;;26.32;41.66;97258.47;4911422;29;20277;-75
2022/09/08 11:40:02;;;;;;;7.30;4.30;;;;;;;26.46;40.87;97249.88;4911535;29;20214;-74
2022/09/08 11:42:47;;;;;;;4.57;3.93;;;;;;;26.55;40.50;97255.03;4882766;29;20671;-75
2022/09/08 11:45:33;;;;;;;7.27;4.13;;;;;;;26.46;41.06;97240.06;4910016;29;20269;-75
2022/09/08 11:48:29;;;;;;;6.70;4.47;;;;;;;26.68;40.42;97246.59;4910905;29;20237;-75
2022/09/08 11:51:10;;;;;;;6.37;3.70;;;;;;;26.40;41.27;97246.03;4903852;29;20241;-74
2022/09/08 11:54:28;;;;;;;4.93;3.57;;;;;;;26.02;41.94;97251.88;4910295;29;20209;-75
2022/09/08 11:57:17;;;;;;;5.43;3.60;;;;;;;26.00;41.88;97242.41;4910959;29;20590;-76
2022/09/08 12:00:32;;;;;;;4.93;4.43;;;;;;;26.27;41.32;97237.72;4910288;29;20194;-78
2022/09/08 12:03:30;;;;;;;4.43;3.63;;;;;;;26.34;40.92;97237.88;4885556;29;20199;-73
2022/09/08 12:06:17;;;;;;;7.33;5.07;;;;;;;26.37;41.03;97234.91;4909573;29;20225;-74
2022/09/08 12:09:25;;;;;;;4.50;4.10;;;;;;;26.58;41.02;97237.94;4910135;29;20241;-78
2022/09/08 12:12:14;;;;;;;5.97;3.87;;;;;;;26.91;39.98;97233.50;4911260;29;20198;-77
2022/09/08 12:14:42;;;;;;;3.87;3.47;;;;;;;27.07;39.45;97234.34;4910950;29;20766;-77
2022/09/08 12:17:25;;;;;;;4.10;3.63;;;;;;;26.94;39.60;97228.69;4909910;29;20298;-78
2022/09/08 12:20:29;;;;;;;5.60;4.50;;;;;;;27.13;39.19;97223.03;4910770;29;20291;-77
2022/09/08 12:23:21;;;;;;;4.33;3.93;;;;;;;26.83;40.04;97226.34;4910756;29;20191;-75